createdAt,value
2022-12-11T00:00:58.232Z,97494.31
2022-12-11T00:03:25.744Z,97470.19
2022-12-11T00:05:52.798Z,97469.41
2022-12-11T00:08:19.914Z,97455.50
2022-12-11T00:10:50.730Z,97443.25
2022-12-11T00:13:18.013Z,97445.66
2022-12-11T00:15:44.988Z,97430.59
2022-12-11T00:18:14.199Z,97454.72
2022-12-11T00:20:41.277Z,97448.03
2022-12-11T00:23:08.492Z,97463.88
2022-12-11T00:25:35.663Z,97477.75
2022-12-11T00:28:02.889Z,97470.19
2022-12-11T00:30:29.847Z,97472.19
2022-12-11T00:32:57.083Z,97452.00
2022-12-11T00:35:24.047Z,97444.09
2022-12-11T00:37:51.318Z,97434.19
2022-12-11T00:40:18.343Z,97442.47
2022-12-11T00:42:45.414Z,97436.16
2022-12-11T00:45:12.801Z,97437.34
2022-12-11T00:47:40.012Z,97432.19
2022-12-11T00:50:07.871Z,97415.56
2022-12-11T00:52:34.999Z,97417.16
2022-12-11T00:55:02.127Z,97431.00
2022-12-11T00:57:29.196Z,97436.16
2022-12-11T00:59:56.318Z,97416.75
2022-12-11T01:02:23.369Z,97404.47
2022-12-11T01:04:50.573Z,97424.69
2022-12-11T01:07:17.584Z,97410.81
2022-12-11T01:10:03.158Z,97402.09
2022-12-11T01:12:30.215Z,97409.22
2022-12-11T01:14:57.257Z,97386.25
2022-12-11T01:17:24.560Z,97391.81
2022-12-11T01:19:54.439Z,97385.84
2022-12-11T01:22:22.275Z,97399.31
2022-12-11T01:24:49.482Z,97404.88
2022-12-11T01:27:16.634Z,97390.63
2022-12-11T01:29:43.705Z,97368.44
2022-12-11T01:32:10.755Z,97364.47
2022-12-11T01:34:37.868Z,97334.75
2022-12-11T01:37:05.369Z,97322.88
2022-12-11T01:39:32.369Z,97305.44
2022-12-11T01:42:01.242Z,97292.78
2022-12-11T01:44:31.085Z,97286.81
2022-12-11T01:46:58.651Z,97280.84
2022-12-11T01:49:27.608Z,97296.72
2022-12-11T01:52:10.746Z,97268.59
2022-12-11T01:54:37.931Z,97269.31
2022-12-11T01:57:08.933Z,97234.41
2022-12-11T01:59:39.301Z,97234.06
2022-12-11T02:02:26.132Z,97240.78
2022-12-11T02:04:53.115Z,97235.63
2022-12-11T02:07:20.504Z,97243.50
2022-12-11T02:09:48.587Z,97253.00
2022-12-11T02:12:18.707Z,97257.72
2022-12-11T02:15:30.092Z,97247.78
2022-12-11T02:18:19.237Z,97254.47
2022-12-11T02:21:18.379Z,97256.09
2022-12-11T02:24:14.500Z,97237.38
2022-12-11T02:27:09.179Z,97248.50
2022-12-11T02:29:39.743Z,97244.94
2022-12-11T02:32:16.843Z,97236.22
2022-12-11T02:34:52.000Z,97227.06
2022-12-11T02:37:23.274Z,97225.47
2022-12-11T02:39:53.414Z,97214.00
2022-12-11T02:42:23.443Z,97203.34
2022-12-11T02:44:52.651Z,97197.66
2022-12-11T02:47:21.467Z,97177.94
2022-12-11T02:49:50.738Z,97192.56
2022-12-11T02:52:22.172Z,97165.56
2022-12-11T02:54:51.992Z,97175.09
2022-12-11T02:57:38.187Z,97178.19
2022-12-11T03:00:06.590Z,97165.47
2022-12-11T03:02:34.198Z,97159.22
2022-12-11T03:05:01.357Z,97149.28
2022-12-11T03:07:33.576Z,97149.59
2022-12-11T03:10:01.152Z,97165.06
2022-12-11T03:12:31.638Z,97162.19
2022-12-11T03:15:05.344Z,97178.16
2022-12-11T03:17:44.833Z,97194.75
2022-12-11T03:20:33.495Z,97193.59
2022-12-11T03:23:30.810Z,97173.47
2022-12-11T03:26:03.550Z,97161.22
2022-12-11T03:28:36.557Z,97186.22
2022-12-11T03:31:08.922Z,97187.06
2022-12-11T03:33:40.804Z,97195.34
2022-12-11T03:36:20.765Z,97207.63
2022-12-11T03:38:58.155Z,97202.09
2022-12-11T03:41:28.299Z,97224.31
2022-12-11T03:43:58.676Z,97209.22
2022-12-11T03:46:34.451Z,97186.22
2022-12-11T03:49:07.762Z,97208.53
2022-12-11T03:51:35.894Z,97212.25
2022-12-11T03:54:03.895Z,97230.06
2022-12-11T03:56:34.382Z,97215.44
2022-12-11T03:59:01.965Z,97215.47
2022-12-11T04:01:29.151Z,97208.38
2022-12-11T04:03:56.495Z,97212.25
2022-12-11T04:06:23.540Z,97208.31
2022-12-11T04:08:50.590Z,97209.50
2022-12-11T04:11:50.044Z,97206.69
2022-12-11T04:14:36.087Z,97205.91
2022-12-11T04:17:03.005Z,97218.88
2022-12-11T04:19:48.464Z,97210.16
2022-12-11T04:22:36.393Z,97193.94
2022-12-11T04:25:06.519Z,97188.47
2022-12-11T04:27:48.997Z,97202.34
2022-12-11T04:30:22.828Z,97197.63
2022-12-11T04:32:50.901Z,97197.19
2022-12-11T04:35:18.860Z,97204.38
2022-12-11T04:37:46.327Z,97195.34
2022-12-11T04:40:16.570Z,97194.19
2022-12-11T04:42:44.170Z,97176.84
2022-12-11T04:45:12.565Z,97186.28
2022-12-11T04:47:40.722Z,97196.59
2022-12-11T04:50:13.548Z,97192.63
2022-12-11T04:52:40.899Z,97191.81
2022-12-11T04:55:09.154Z,97193.34
2022-12-11T04:57:36.677Z,97194.84
2022-12-11T05:00:09.924Z,97195.63
2022-12-11T05:02:38.640Z,97223.34
2022-12-11T05:05:09.932Z,97197.19
2022-12-11T05:07:38.022Z,97203.91
2022-12-11T05:10:06.123Z,97182.16
2022-12-11T05:12:33.858Z,97185.34
2022-12-11T05:15:00.976Z,97182.84
2022-12-11T05:17:28.029Z,97199.44
2022-12-11T05:20:04.563Z,97188.69
2022-12-11T05:23:02.205Z,97164.22
2022-12-11T05:25:33.647Z,97197.03
2022-12-11T05:28:00.573Z,97188.31
2022-12-11T05:30:27.805Z,97195.94
2022-12-11T05:32:54.947Z,97201.66
2022-12-11T05:35:22.122Z,97206.84
2022-12-11T05:37:51.549Z,97198.16
2022-12-11T05:40:19.215Z,97207.28
2022-12-11T05:42:46.533Z,97210.56
2022-12-11T05:45:17.459Z,97212.13
2022-12-11T05:47:44.693Z,97211.31
2022-12-11T05:50:11.903Z,97217.69
2022-12-11T05:52:42.040Z,97208.25
2022-12-11T05:55:10.295Z,97217.75
2022-12-11T05:57:50.711Z,97215.00
2022-12-11T06:00:23.084Z,97217.75
2022-12-11T06:02:54.390Z,97195.66
2022-12-11T06:05:22.329Z,97198.00
2022-12-11T06:07:49.981Z,97221.34
2022-12-11T06:10:17.760Z,97205.97
2022-12-11T06:12:44.934Z,97231.13
2022-12-11T06:15:15.101Z,97224.13
2022-12-11T06:17:42.705Z,97239.09
2022-12-11T06:20:11.086Z,97246.59
2022-12-11T06:22:38.519Z,97252.59
2022-12-11T06:25:10.000Z,97256.56
2022-12-11T06:27:37.564Z,97245.44
2022-12-11T06:30:05.326Z,97261.66
2022-12-11T06:32:32.815Z,97255.28
2022-12-11T06:34:59.868Z,97258.97
2022-12-11T06:37:27.257Z,97260.19
2022-12-11T06:39:59.525Z,97262.41
2022-12-11T06:42:27.298Z,97266.09
2022-12-11T06:44:56.774Z,97287.56
2022-12-11T06:47:27.930Z,97309.03
2022-12-11T06:49:56.686Z,97314.59
2022-12-11T06:52:28.022Z,97296.75
2022-12-11T06:54:55.302Z,97330.13
2022-12-11T06:57:25.195Z,97343.22
2022-12-11T06:59:53.968Z,97355.53
2022-12-11T07:02:21.994Z,97356.72
2022-12-11T07:04:54.784Z,97342.88
2022-12-11T07:07:22.782Z,97344.06
2022-12-11T07:09:49.904Z,97353.56
2022-12-11T07:12:20.582Z,97333.41
2022-12-11T07:14:47.715Z,97329.47
2022-12-11T07:17:15.328Z,97329.88
2022-12-11T07:19:43.511Z,97334.66
2022-12-11T07:22:11.598Z,97324.28
2022-12-11T07:24:39.590Z,97333.38
2022-12-11T07:27:06.611Z,97324.25
2022-12-11T07:29:36.798Z,97320.59
2022-12-11T07:32:05.072Z,97315.00
2022-12-11T07:34:32.884Z,97321.56
2022-12-11T07:37:00.535Z,97310.44
2022-12-11T07:39:28.419Z,97319.88
2022-12-11T07:41:55.838Z,97321.09
2022-12-11T07:44:23.463Z,97338.06
2022-12-11T07:46:51.099Z,97349.59
2022-12-11T07:49:18.941Z,97344.88
2022-12-11T07:51:52.076Z,97356.81
2022-12-11T07:54:21.080Z,97355.63
2022-12-11T07:56:54.006Z,97349.34
2022-12-11T07:59:26.423Z,97346.53
2022-12-11T08:01:56.395Z,97342.59
2022-12-11T08:04:26.465Z,97333.88
2022-12-11T08:06:53.812Z,97334.34
2022-12-11T08:09:22.805Z,97335.19
2022-12-11T08:11:51.081Z,97345.41
2022-12-11T08:14:19.981Z,97335.94
2022-12-11T08:16:47.200Z,97345.81
2022-12-11T08:19:15.229Z,97341.06
2022-12-11T08:21:45.357Z,97348.53
2022-12-11T08:24:13.414Z,97346.19
2022-12-11T08:26:41.227Z,97358.88
2022-12-11T08:29:11.655Z,97338.63
2022-12-11T08:31:40.691Z,97332.59
2022-12-11T08:34:08.098Z,97338.09
2022-12-11T08:36:36.007Z,97327.63
2022-12-11T08:39:04.762Z,97325.25
2022-12-11T08:41:32.306Z,97326.00
2022-12-11T08:44:02.388Z,97298.69
2022-12-11T08:46:33.489Z,97309.66
2022-12-11T08:49:00.790Z,97307.59
2022-12-11T08:51:29.876Z,97308.31
2022-12-11T08:54:00.984Z,97292.03
2022-12-11T08:56:29.158Z,97308.97
2022-12-11T08:58:59.204Z,97302.44
2022-12-11T09:01:28.079Z,97306.75
2022-12-11T09:03:56.988Z,97310.25
2022-12-11T09:06:26.758Z,97305.22
2022-12-11T09:08:56.818Z,97295.09
2022-12-11T09:11:31.330Z,97295.47
2022-12-11T09:14:03.589Z,97293.84
2022-12-11T09:16:38.135Z,97226.69
2022-12-11T09:19:16.517Z,97280.53
2022-12-11T09:21:45.164Z,97281.53
2022-12-11T09:24:13.582Z,97283.22
2022-12-11T09:26:44.360Z,97277.75
2022-12-11T09:29:12.705Z,97273.50
2022-12-11T09:31:40.114Z,97265.28
2022-12-11T09:34:10.013Z,97272.53
2022-12-11T09:36:40.367Z,97268.28
2022-12-11T09:39:09.334Z,97269.06
2022-12-11T09:41:41.223Z,97245.63
2022-12-11T09:44:35.684Z,97275.28
2022-12-11T09:47:03.585Z,97287.22
2022-12-11T09:49:39.926Z,97301.47
2022-12-11T09:52:21.725Z,97286.31
2022-12-11T09:54:59.002Z,97291.16
2022-12-11T09:58:21.534Z,97277.03
2022-12-11T10:01:10.603Z,97266.66
2022-12-11T10:04:22.563Z,97261.03
2022-12-11T10:07:30.477Z,97270.13
2022-12-11T10:10:17.504Z,97278.53
2022-12-11T10:12:50.768Z,97269.69
2022-12-11T10:15:37.009Z,97280.50
2022-12-11T10:18:11.245Z,97269.81
2022-12-11T10:20:43.294Z,97259.22
2022-12-11T10:23:20.300Z,97263.81
2022-12-11T10:25:56.125Z,97242.03
2022-12-11T10:28:25.804Z,97228.59
2022-12-11T10:30:56.157Z,97239.78
2022-12-11T10:33:37.268Z,97242.19
2022-12-11T10:36:08.005Z,97251.81
2022-12-11T10:38:45.958Z,97252.50
2022-12-11T10:41:24.512Z,97242.44
2022-12-11T10:43:56.527Z,97248.03
2022-12-11T10:46:29.757Z,97256.81
2022-12-11T10:49:01.546Z,97255.66
2022-12-11T10:51:32.710Z,97254.06
2022-12-11T10:54:36.966Z,97251.66
2022-12-11T10:57:07.162Z,97252.66
2022-12-11T10:59:43.474Z,97250.97
2022-12-11T11:02:27.972Z,97265.16
2022-12-11T11:04:56.655Z,97259.16
2022-12-11T11:07:32.458Z,97260.97
2022-12-11T11:10:05.824Z,97253.69
2022-12-11T11:12:43.856Z,97249.19
2022-12-11T11:15:17.156Z,97254.81
2022-12-11T11:17:54.985Z,97254.50
2022-12-11T11:20:27.288Z,97264.59
2022-12-11T11:22:58.467Z,97253.28
2022-12-11T11:25:36.189Z,97265.88
2022-12-11T11:28:07.624Z,97258.66
2022-12-11T11:30:37.905Z,97258.09
2022-12-11T11:33:20.814Z,97252.41
2022-12-11T11:35:59.596Z,97258.66
2022-12-11T11:38:32.189Z,97264.25
2022-12-11T11:41:14.568Z,97266.03
2022-12-11T11:43:50.418Z,97297.47
2022-12-11T11:46:31.328Z,97303.00
2022-12-11T11:49:04.685Z,97307.13
2022-12-11T11:51:39.912Z,97295.13
2022-12-11T11:54:48.657Z,97288.69
2022-12-11T11:57:23.730Z,97308.50
2022-12-11T11:59:56.696Z,97305.28
2022-12-11T12:02:24.325Z,97311.84
2022-12-11T12:04:52.368Z,97311.91
2022-12-11T12:07:28.459Z,97334.75
2022-12-11T12:10:15.142Z,97343.63
2022-12-11T12:13:48.263Z,97318.34
2022-12-11T12:16:50.995Z,97333.81
2022-12-11T12:19:14.133Z,97341.81
2022-12-11T12:21:48.222Z,97328.28
2022-12-11T12:24:43.375Z,97343.84
2022-12-11T12:27:52.070Z,97357.63
2022-12-11T12:30:23.892Z,97349.63
2022-12-11T12:33:29.905Z,97370.38
2022-12-11T12:36:08.932Z,97368.03
2022-12-11T12:38:51.057Z,97366.84
2022-12-11T12:41:48.004Z,97358.94
2022-12-11T12:44:18.410Z,97329.66
2022-12-11T12:50:03.114Z,97358.53
2022-12-11T12:52:36.591Z,97360.09
2022-12-11T12:55:14.424Z,97316.16
2022-12-11T12:57:58.666Z,97345.84
2022-12-11T13:00:38.173Z,97363.28
2022-12-11T13:03:32.216Z,97359.72
2022-12-11T13:06:07.207Z,97354.16
2022-12-11T13:08:53.401Z,97351.41
2022-12-11T13:11:31.380Z,97272.22
2022-12-11T13:14:05.647Z,97355.34
2022-12-11T13:16:41.686Z,97347.84
2022-12-11T13:19:23.904Z,97359.31
2022-12-11T13:22:00.181Z,97364.06
2022-12-11T13:24:30.105Z,97356.19
2022-12-11T13:27:08.631Z,97378.34
2022-12-11T13:29:42.423Z,97381.47
2022-12-11T13:32:09.771Z,97380.66
2022-12-11T13:34:40.786Z,97369.97
2022-12-11T13:37:37.035Z,97372.72
2022-12-11T13:40:20.377Z,97379.84
2022-12-11T13:42:57.230Z,97376.63
2022-12-11T13:46:00.344Z,97375.00
2022-12-11T13:48:41.335Z,97339.19
2022-12-11T13:51:16.546Z,97402.66
2022-12-11T13:53:44.561Z,97401.03
2022-12-11T13:56:20.791Z,97404.16
2022-12-11T13:58:51.216Z,97410.44
2022-12-11T14:01:31.418Z,97419.00
2022-12-11T14:04:19.317Z,97420.47
2022-12-11T14:06:47.342Z,97432.69
2022-12-11T14:09:23.957Z,97439.28
2022-12-11T14:11:56.823Z,97437.56
2022-12-11T14:14:34.547Z,97435.69
2022-12-11T14:17:02.710Z,97428.94
2022-12-11T14:19:30.060Z,97444.03
2022-12-11T14:22:03.695Z,97435.16
2022-12-11T14:24:34.291Z,97459.66
2022-12-11T14:27:05.442Z,97460.00
2022-12-11T14:29:34.018Z,97476.03
2022-12-11T14:32:05.325Z,97486.78
2022-12-11T14:34:37.287Z,97503.34
2022-12-11T14:37:08.440Z,97508.00
2022-12-11T14:39:43.050Z,97497.50
2022-12-11T14:42:20.207Z,97507.50
2022-12-11T14:44:53.832Z,97494.66
2022-12-11T14:47:25.595Z,97522.72
2022-12-11T14:50:23.408Z,97506.41
2022-12-11T14:52:59.834Z,97520.41
2022-12-11T14:55:33.073Z,97522.03
2022-12-11T14:58:04.340Z,97484.63
2022-12-11T15:00:33.629Z,97519.59
2022-12-11T15:03:06.984Z,97510.63
2022-12-11T15:05:40.670Z,97508.63
2022-12-11T15:08:11.002Z,97519.50
2022-12-11T15:10:43.010Z,97521.03
2022-12-11T15:13:11.037Z,97521.53
2022-12-11T15:15:47.859Z,97512.09
2022-12-11T15:18:36.786Z,97516.84
2022-12-11T15:21:07.478Z,97523.41
2022-12-11T15:23:54.910Z,97530.25
2022-12-11T15:26:35.011Z,97449.03
2022-12-11T15:29:23.994Z,97450.00
2022-12-11T15:32:11.313Z,97529.31
2022-12-11T15:34:46.151Z,97557.72
2022-12-11T15:37:36.460Z,97560.97
2022-12-11T15:40:04.904Z,97562.41
2022-12-11T15:42:39.318Z,97581.78
2022-12-11T15:45:10.212Z,97596.19
2022-12-11T15:47:37.790Z,97599.03
2022-12-11T15:53:46.326Z,97604.19
2022-12-11T15:56:16.319Z,97577.88
2022-12-11T15:58:46.548Z,97580.97
2022-12-11T16:01:13.712Z,97591.66
2022-12-11T16:03:40.978Z,97564.25
2022-12-11T16:06:14.247Z,97598.69
2022-12-11T16:08:41.799Z,97606.50
2022-12-11T16:11:13.979Z,97614.28
2022-12-11T16:13:41.092Z,97619.00
2022-12-11T16:16:08.470Z,97631.22
2022-12-11T16:18:35.709Z,97627.81
2022-12-11T16:21:06.488Z,97629.44
2022-12-11T16:23:33.597Z,97631.06
2022-12-11T16:26:07.451Z,97626.28
2022-12-11T16:28:43.616Z,97626.84
2022-12-11T16:31:12.959Z,97613.50
2022-12-11T16:33:47.518Z,97640.78
2022-12-11T16:36:19.961Z,97642.38
2022-12-11T16:38:53.582Z,97651.84
2022-12-11T16:41:21.495Z,97653.34
2022-12-11T16:43:48.628Z,97660.06
2022-12-11T16:46:20.092Z,97650.09
2022-12-11T16:48:47.397Z,97650.44
2022-12-11T16:51:15.015Z,97666.19
2022-12-11T16:53:42.355Z,97671.91
2022-12-11T16:56:09.517Z,97683.31
2022-12-11T16:58:36.877Z,97679.88
2022-12-11T17:01:15.186Z,97712.75
2022-12-11T17:03:43.680Z,97708.38
2022-12-11T17:06:12.927Z,97676.19
2022-12-11T17:08:40.525Z,97695.28
2022-12-11T17:11:13.506Z,97681.44
2022-12-11T17:13:41.231Z,97692.44
2022-12-11T17:16:14.670Z,97711.41
2022-12-11T17:18:44.561Z,97694.03
2022-12-11T17:21:14.627Z,97669.06
2022-12-11T17:23:42.617Z,97717.22
2022-12-11T17:26:10.235Z,97701.91
2022-12-11T17:28:38.359Z,97698.84
2022-12-11T17:31:08.091Z,97686.13
2022-12-11T17:33:35.434Z,97698.59
2022-12-11T17:36:04.521Z,97714.59
2022-12-11T17:38:32.182Z,97703.84
2022-12-11T17:40:59.428Z,97706.81
2022-12-11T17:43:27.126Z,97718.56
2022-12-11T17:45:55.685Z,97714.22
2022-12-11T17:48:22.982Z,97713.41
2022-12-11T17:50:52.390Z,97715.03
2022-12-11T17:53:23.481Z,97723.31
2022-12-11T17:55:52.279Z,97714.75
2022-12-11T17:59:10.085Z,97737.81
2022-12-11T18:02:02.849Z,97748.47
2022-12-11T18:04:59.646Z,97750.97
2022-12-11T18:07:26.848Z,97746.22
2022-12-11T18:09:54.054Z,97740.69
2022-12-11T18:12:20.974Z,97734.75
2022-12-11T18:14:48.285Z,97744.38
2022-12-11T18:17:15.451Z,97753.38
2022-12-11T18:19:46.016Z,97746.97
2022-12-11T18:22:13.513Z,97737.22
2022-12-11T18:24:40.783Z,97745.66
2022-12-11T18:27:11.038Z,97759.88
2022-12-11T18:29:38.364Z,97765.00
2022-12-11T18:32:06.117Z,97769.16
2022-12-11T18:34:33.400Z,97756.78
2022-12-11T18:37:00.495Z,97742.09
2022-12-11T18:39:27.551Z,97758.84
2022-12-11T18:42:30.632Z,97765.00
2022-12-11T18:44:43.513Z,97764.19
2022-12-11T18:47:10.717Z,97772.56
2022-12-11T18:49:38.755Z,97764.94
2022-12-11T18:52:06.260Z,97771.34
2022-12-11T18:54:35.694Z,97756.38
2022-12-11T18:57:09.555Z,97764.06
2022-12-11T18:59:36.808Z,97776.06
2022-12-11T19:02:12.464Z,97792.38
2022-12-11T19:05:05.620Z,97808.91
2022-12-11T19:07:33.746Z,97812.53
2022-12-11T19:10:01.358Z,97831.06
2022-12-11T19:12:28.594Z,97816.59
2022-12-11T19:14:55.611Z,97804.69
2022-12-11T19:17:22.917Z,97786.97
2022-12-11T19:19:50.460Z,97789.31
2022-12-11T19:22:20.611Z,97799.44
2022-12-11T19:24:47.770Z,97805.88
2022-12-11T19:27:14.707Z,97794.38
2022-12-11T19:29:42.371Z,97801.56
2022-12-11T19:32:09.953Z,97803.09
2022-12-11T19:34:38.622Z,97791.81
2022-12-11T19:37:06.173Z,97787.16
2022-12-11T19:39:33.314Z,97804.94
2022-12-11T19:42:00.567Z,97790.03
2022-12-11T19:44:27.622Z,97801.38
2022-12-11T19:46:54.798Z,97808.78
2022-12-11T19:49:21.911Z,97813.25
2022-12-11T19:51:49.345Z,97809.25
2022-12-11T19:54:18.087Z,97775.63
2022-12-11T19:56:45.862Z,97812.09
2022-12-11T19:59:16.837Z,97739.13
2022-12-11T20:01:47.999Z,97813.06
2022-12-11T20:04:16.754Z,97825.44
2022-12-11T20:06:46.107Z,97820.78
2022-12-11T20:09:14.393Z,97824.13
2022-12-11T20:11:44.185Z,97755.00
2022-12-11T20:14:20.241Z,97832.94
2022-12-11T20:17:09.751Z,97834.88
2022-12-11T20:19:35.529Z,97832.50
2022-12-11T20:22:02.903Z,97836.81
2022-12-11T20:25:12.190Z,97842.31
2022-12-11T20:27:53.759Z,97847.31
2022-12-11T20:30:46.014Z,97843.69
2022-12-11T20:33:13.305Z,97859.94
2022-12-11T20:35:41.370Z,97766.94
2022-12-11T20:38:08.538Z,97845.53
2022-12-11T20:40:35.758Z,97843.28
2022-12-11T20:43:02.938Z,97842.69
2022-12-11T20:45:32.894Z,97853.50
2022-12-11T20:48:00.217Z,97850.31
2022-12-11T20:50:27.200Z,97866.03
2022-12-11T20:52:54.313Z,97862.53
2022-12-11T20:55:21.259Z,97862.03
2022-12-11T20:57:48.494Z,97867.03
2022-12-11T21:00:16.095Z,97856.09
2022-12-11T21:02:43.995Z,97877.16
2022-12-11T21:05:11.691Z,97869.28
2022-12-11T21:07:39.097Z,97867.03
2022-12-11T21:10:09.368Z,97859.16
2022-12-11T21:12:38.543Z,97860.44
2022-12-11T21:15:06.282Z,97868.47
2022-12-11T21:17:34.749Z,97863.03
2022-12-11T21:20:02.868Z,97871.06
2022-12-11T21:22:30.132Z,97869.28
2022-12-11T21:24:57.252Z,97868.50
2022-12-11T21:27:24.886Z,97877.31
2022-12-11T21:29:52.455Z,97890.50
2022-12-11T21:32:21.014Z,97879.41
2022-12-11T21:34:50.593Z,97879.91
2022-12-11T21:37:20.489Z,97875.22
2022-12-11T21:39:47.449Z,97890.66
2022-12-11T21:42:14.637Z,97867.84
2022-12-11T21:45:37.671Z,97857.41
2022-12-11T21:47:33.113Z,97862.53
2022-12-11T21:50:00.166Z,97866.25
2022-12-11T21:52:27.312Z,97879.91
2022-12-11T21:54:54.193Z,97873.78
2022-12-11T21:57:26.760Z,97883.44
2022-12-11T21:59:53.926Z,97897.41
2022-12-11T22:02:21.256Z,97910.56
2022-12-11T22:04:48.283Z,97909.94
2022-12-11T22:07:16.468Z,97907.69
2022-12-11T22:09:44.062Z,97898.03
2022-12-11T22:12:23.489Z,97818.78
2022-12-11T22:14:51.067Z,97908.63
2022-12-11T22:17:19.187Z,97919.06
2022-12-11T22:19:47.380Z,97915.38
2022-12-11T22:22:14.937Z,97915.84
2022-12-11T22:24:41.909Z,97926.31
2022-12-11T22:27:09.554Z,97919.72
2022-12-11T22:29:37.271Z,97938.81
2022-12-11T22:32:05.203Z,97925.66
2022-12-11T22:34:32.225Z,97921.97
2022-12-11T22:37:00.256Z,97939.00
2022-12-11T22:39:27.335Z,97947.03
2022-12-11T22:41:54.536Z,97912.00
2022-12-11T22:44:21.910Z,97935.28
2022-12-11T22:46:50.405Z,97939.13
2022-12-11T22:49:19.063Z,97939.44
2022-12-11T22:51:46.542Z,97947.28
2022-12-11T22:54:13.697Z,97934.44
2022-12-11T22:56:41.048Z,97943.09
2022-12-11T22:59:07.992Z,97936.53
2022-12-11T23:01:35.311Z,97926.72
2022-12-11T23:04:02.794Z,97941.22
2022-12-11T23:06:29.766Z,97937.66
2022-12-11T23:09:00.897Z,97942.41
2022-12-11T23:11:31.509Z,97931.03
2022-12-11T23:13:59.060Z,97942.28
2022-12-11T23:16:27.665Z,97954.28
2022-12-11T23:18:56.432Z,97950.75
2022-12-11T23:21:25.432Z,97960.22
2022-12-11T23:23:52.709Z,97966.03
2022-12-11T23:26:19.925Z,97971.50
2022-12-11T23:28:47.946Z,97977.88
2022-12-11T23:31:16.107Z,97965.06
2022-12-11T23:33:43.241Z,97974.81
2022-12-11T23:36:10.575Z,97976.09
2022-12-11T23:38:38.539Z,97982.50
2022-12-11T23:41:08.667Z,97972.81
2022-12-11T23:43:37.589Z,97978.75
2022-12-11T23:46:07.748Z,97977.16
2022-12-11T23:48:35.030Z,97995.44
2022-12-11T23:51:03.955Z,97986.91
2022-12-11T23:53:31.519Z,97992.66
2022-12-11T23:56:06.299Z,97989.56
2022-12-11T23:58:36.253Z,97991.19
